sensor_id;sensor_type;location;lat;lon;timestamp;temperature;humidity
69546;SHT31;56766;52.260;20.746;2023-04-03T00:01:11;1.40;75.59
69546;SHT31;56766;52.260;20.746;2023-04-03T00:03:38;1.40;75.71
69546;SHT31;56766;52.260;20.746;2023-04-03T00:06:05;1.35;76.09
69546;SHT31;56766;52.260;20.746;2023-04-03T00:08:33;1.31;76.04
69546;SHT31;56766;52.260;20.746;2023-04-03T00:11:01;1.28;76.12
69546;SHT31;56766;52.260;20.746;2023-04-03T00:13:29;1.26;76.49
69546;SHT31;56766;52.260;20.746;2023-04-03T00:15:55;1.20;76.76
69546;SHT31;56766;52.260;20.746;2023-04-03T00:18:22;1.17;76.70
69546;SHT31;56766;52.260;20.746;2023-04-03T00:20:49;1.13;76.98
69546;SHT31;56766;52.260;20.746;2023-04-03T00:23:16;1.09;77.21
69546;SHT31;56766;52.260;20.746;2023-04-03T00:25:43;1.05;76.66
69546;SHT31;56766;52.260;20.746;2023-04-03T00:28:09;1.05;76.33
69546;SHT31;56766;52.260;20.746;2023-04-03T00:30:36;1.04;76.40
69546;SHT31;56766;52.260;20.746;2023-04-03T00:33:03;1.04;76.16
69546;SHT31;56766;52.260;20.746;2023-04-03T00:35:30;1.01;76.61
69546;SHT31;56766;52.260;20.746;2023-04-03T00:37:56;0.98;76.08
69546;SHT31;56766;52.260;20.746;2023-04-03T00:40:26;0.96;76.37
69546;SHT31;56766;52.260;20.746;2023-04-03T00:42:58;0.93;76.00
69546;SHT31;56766;52.260;20.746;2023-04-03T00:45:31;0.93;75.50
69546;SHT31;56766;52.260;20.746;2023-04-03T00:48:04;0.91;75.32
69546;SHT31;56766;52.260;20.746;2023-04-03T00:50:35;0.89;75.69
69546;SHT31;56766;52.260;20.746;2023-04-03T00:53:07;0.85;75.90
69546;SHT31;56766;52.260;20.746;2023-04-03T00:55:39;0.82;75.59
69546;SHT31;56766;52.260;20.746;2023-04-03T00:58:06;0.79;75.63
69546;SHT31;56766;52.260;20.746;2023-04-03T01:00:38;0.75;75.58
69546;SHT31;56766;52.260;20.746;2023-04-03T01:03:09;0.74;75.21
69546;SHT31;56766;52.260;20.746;2023-04-03T01:05:37;0.72;75.13
69546;SHT31;56766;52.260;20.746;2023-04-03T01:08:04;0.70;74.90
69546;SHT31;56766;52.260;20.746;2023-04-03T01:10:32;0.71;74.59
69546;SHT31;56766;52.260;20.746;2023-04-03T01:13:00;0.68;74.58
69546;SHT31;56766;52.260;20.746;2023-04-03T01:15:28;0.66;74.71
69546;SHT31;56766;52.260;20.746;2023-04-03T01:18:01;0.61;75.04
69546;SHT31;56766;52.260;20.746;2023-04-03T01:25:41;0.51;74.77
69546;SHT31;56766;52.260;20.746;2023-04-03T01:28:16;0.48;75.11
69546;SHT31;56766;52.260;20.746;2023-04-03T01:30:53;0.42;75.48
69546;SHT31;56766;52.260;20.746;2023-04-03T01:33:24;0.37;75.43
69546;SHT31;56766;52.260;20.746;2023-04-03T01:35:51;0.33;75.36
69546;SHT31;56766;52.260;20.746;2023-04-03T01:38:18;0.29;75.21
69546;SHT31;56766;52.260;20.746;2023-04-03T01:40:45;0.28;75.28
69546;SHT31;56766;52.260;20.746;2023-04-03T01:43:11;0.26;74.97
69546;SHT31;56766;52.260;20.746;2023-04-03T01:45:38;0.26;75.20
69546;SHT31;56766;52.260;20.746;2023-04-03T01:48:05;0.21;75.49
69546;SHT31;56766;52.260;20.746;2023-04-03T01:50:32;0.17;75.36
69546;SHT31;56766;52.260;20.746;2023-04-03T01:52:59;0.15;75.51
69546;SHT31;56766;52.260;20.746;2023-04-03T01:55:26;0.10;75.67
69546;SHT31;56766;52.260;20.746;2023-04-03T01:58:02;0.06;75.66
69546;SHT31;56766;52.260;20.746;2023-04-03T02:00:29;0.02;75.62
69546;SHT31;56766;52.260;20.746;2023-04-03T02:02:56;0.03;75.23
69546;SHT31;56766;52.260;20.746;2023-04-03T02:05:23;0.02;75.59
69546;SHT31;56766;52.260;20.746;2023-04-03T02:07:49;-0.00;75.82
69546;SHT31;56766;52.260;20.746;2023-04-03T02:10:17;-0.02;75.55
69546;SHT31;56766;52.260;20.746;2023-04-03T02:12:43;-0.04;75.43
69546;SHT31;56766;52.260;20.746;2023-04-03T02:15:11;-0.05;75.54
69546;SHT31;56766;52.260;20.746;2023-04-03T02:17:38;-0.09;76.00
69546;SHT31;56766;52.260;20.746;2023-04-03T02:20:05;-0.13;76.23
69546;SHT31;56766;52.260;20.746;2023-04-03T02:22:32;-0.16;76.10
69546;SHT31;56766;52.260;20.746;2023-04-03T02:24:59;-0.19;75.87
69546;SHT31;56766;52.260;20.746;2023-04-03T02:27:26;-0.19;75.93
69546;SHT31;56766;52.260;20.746;2023-04-03T02:29:53;-0.23;75.92
69546;SHT31;56766;52.260;20.746;2023-04-03T02:32:20;-0.24;75.71
69546;SHT31;56766;52.260;20.746;2023-04-03T02:34:46;-0.24;75.99
69546;SHT31;56766;52.260;20.746;2023-04-03T02:37:13;-0.27;75.83
69546;SHT31;56766;52.260;20.746;2023-04-03T02:39:40;-0.29;75.87
69546;SHT31;56766;52.260;20.746;2023-04-03T02:42:06;-0.31;75.83
69546;SHT31;56766;52.260;20.746;2023-04-03T02:44:34;-0.33;75.96
69546;SHT31;56766;52.260;20.746;2023-04-03T02:47:02;-0.36;76.41
69546;SHT31;56766;52.260;20.746;2023-04-03T02:49:29;-0.42;76.73
69546;SHT31;56766;52.260;20.746;2023-04-03T02:51:55;-0.46;76.38
69546;SHT31;56766;52.260;20.746;2023-04-03T02:54:22;-0.47;76.40
69546;SHT31;56766;52.260;20.746;2023-04-03T02:56:51;-0.50;76.45
69546;SHT31;56766;52.260;20.746;2023-04-03T02:59:18;-0.52;76.59
69546;SHT31;56766;52.260;20.746;2023-04-03T03:01:45;-0.55;76.30
69546;SHT31;56766;52.260;20.746;2023-04-03T03:04:12;-0.57;76.43
69546;SHT31;56766;52.260;20.746;2023-04-03T03:06:39;-0.60;76.51
69546;SHT31;56766;52.260;20.746;2023-04-03T03:09:07;-0.62;76.43
69546;SHT31;56766;52.260;20.746;2023-04-03T03:11:33;-0.62;76.39
69546;SHT31;56766;52.260;20.746;2023-04-03T03:14:00;-0.63;76.38
69546;SHT31;56766;52.260;20.746;2023-04-03T03:16:27;-0.65;76.42
69546;SHT31;56766;52.260;20.746;2023-04-03T03:18:54;-0.68;76.58
69546;SHT31;56766;52.260;20.746;2023-04-03T03:21:20;-0.70;76.69
69546;SHT31;56766;52.260;20.746;2023-04-03T03:23:47;-0.72;76.51
69546;SHT31;56766;52.260;20.746;2023-04-03T03:26:14;-0.72;76.50
69546;SHT31;56766;52.260;20.746;2023-04-03T03:28:40;-0.74;76.76
69546;SHT31;56766;52.260;20.746;2023-04-03T03:31:10;-0.78;76.74
69546;SHT31;56766;52.260;20.746;2023-04-03T03:33:38;-0.79;76.70
69546;SHT31;56766;52.260;20.746;2023-04-03T03:36:05;-0.81;76.79
69546;SHT31;56766;52.260;20.746;2023-04-03T03:38:32;-0.81;76.72
69546;SHT31;56766;52.260;20.746;2023-04-03T03:40:59;-0.83;76.82
69546;SHT31;56766;52.260;20.746;2023-04-03T03:43:28;-0.84;76.90
69546;SHT31;56766;52.260;20.746;2023-04-03T03:45:55;-0.86;76.90
69546;SHT31;56766;52.260;20.746;2023-04-03T03:48:23;-0.84;76.75
69546;SHT31;56766;52.260;20.746;2023-04-03T03:50:50;-0.84;76.74
69546;SHT31;56766;52.260;20.746;2023-04-03T03:53:17;-0.84;76.62
69546;SHT31;56766;52.260;20.746;2023-04-03T03:55:44;-0.84;76.70
69546;SHT31;56766;52.260;20.746;2023-04-03T03:58:11;-0.84;76.85
69546;SHT31;56766;52.260;20.746;2023-04-03T04:00:37;-0.86;76.78
69546;SHT31;56766;52.260;20.746;2023-04-03T04:03:05;-0.87;76.62
69546;SHT31;56766;52.260;20.746;2023-04-03T04:05:31;-0.84;76.46
69546;SHT31;56766;52.260;20.746;2023-04-03T04:07:59;-0.83;76.70
69546;SHT31;56766;52.260;20.746;2023-04-03T04:10:26;-0.84;76.61
69546;SHT31;56766;52.260;20.746;2023-04-03T04:12:52;-0.83;76.66
69546;SHT31;56766;52.260;20.746;2023-04-03T04:15:19;-0.81;76.74
69546;SHT31;56766;52.260;20.746;2023-04-03T04:17:48;-0.81;76.77
69546;SHT31;56766;52.260;20.746;2023-04-03T04:20:15;-0.79;76.83
69546;SHT31;56766;52.260;20.746;2023-04-03T04:22:42;-0.78;76.76
69546;SHT31;56766;52.260;20.746;2023-04-03T04:25:09;-0.75;76.70
69546;SHT31;56766;52.260;20.746;2023-04-03T04:27:36;-0.74;76.69
69546;SHT31;56766;52.260;20.746;2023-04-03T04:30:04;-0.71;76.35
69546;SHT31;56766;52.260;20.746;2023-04-03T04:32:31;-0.67;76.59
69546;SHT31;56766;52.260;20.746;2023-04-03T04:34:58;-0.66;76.52
69546;SHT31;56766;52.260;20.746;2023-04-03T04:37:25;-0.63;76.19
69546;SHT31;56766;52.260;20.746;2023-04-03T04:39:51;-0.60;76.37
69546;SHT31;56766;52.260;20.746;2023-04-03T04:42:18;-0.55;76.10
69546;SHT31;56766;52.260;20.746;2023-04-03T04:44:45;-0.51;76.20
69546;SHT31;56766;52.260;20.746;2023-04-03T04:47:11;-0.47;76.04
69546;SHT31;56766;52.260;20.746;2023-04-03T04:49:38;-0.41;76.12
69546;SHT31;56766;52.260;20.746;2023-04-03T04:52:05;-0.36;75.99
69546;SHT31;56766;52.260;20.746;2023-04-03T04:54:32;-0.31;75.42
69546;SHT31;56766;52.260;20.746;2023-04-03T04:56:59;-0.23;75.34
69546;SHT31;56766;52.260;20.746;2023-04-03T04:59:26;-0.17;75.20
69546;SHT31;56766;52.260;20.746;2023-04-03T05:01:52;-0.11;74.89
69546;SHT31;56766;52.260;20.746;2023-04-03T05:04:19;-0.06;74.58
69546;SHT31;56766;52.260;20.746;2023-04-03T05:06:46;-0.01;74.19
69546;SHT31;56766;52.260;20.746;2023-04-03T05:09:13;0.04;74.09
69546;SHT31;56766;52.260;20.746;2023-04-03T05:11:41;0.09;73.45
69546;SHT31;56766;52.260;20.746;2023-04-03T05:14:09;0.15;73.21
69546;SHT31;56766;52.260;20.746;2023-04-03T05:16:36;0.22;73.42
69546;SHT31;56766;52.260;20.746;2023-04-03T05:19:03;0.26;73.14
69546;SHT31;56766;52.260;20.746;2023-04-03T05:21:30;0.29;73.46
69546;SHT31;56766;52.260;20.746;2023-04-03T05:24:02;0.32;72.61
69546;SHT31;56766;52.260;20.746;2023-04-03T05:26:30;0.43;72.45
69546;SHT31;56766;52.260;20.746;2023-04-03T05:28:58;0.53;72.23
69546;SHT31;56766;52.260;20.746;2023-04-03T05:31:25;0.64;71.99
69546;SHT31;56766;52.260;20.746;2023-04-03T05:33:52;0.74;71.90
69546;SHT31;56766;52.260;20.746;2023-04-03T05:36:19;0.80;71.08
69546;SHT31;56766;52.260;20.746;2023-04-03T05:38:46;0.85;70.59
69546;SHT31;56766;52.260;20.746;2023-04-03T05:41:14;0.91;70.48
69546;SHT31;56766;52.260;20.746;2023-04-03T05:43:41;0.96;69.98
69546;SHT31;56766;52.260;20.746;2023-04-03T05:46:14;1.02;70.26
69546;SHT31;56766;52.260;20.746;2023-04-03T05:48:44;1.08;70.21
69546;SHT31;56766;52.260;20.746;2023-04-03T05:51:27;1.12;69.72
69546;SHT31;56766;52.260;20.746;2023-04-03T05:54:06;1.16;69.63
69546;SHT31;56766;52.260;20.746;2023-04-03T05:56:38;1.16;69.14
69546;SHT31;56766;52.260;20.746;2023-04-03T05:59:05;1.19;69.59
69546;SHT31;56766;52.260;20.746;2023-04-03T06:01:32;1.16;68.64
69546;SHT31;56766;52.260;20.746;2023-04-03T06:04:00;1.13;68.78
69546;SHT31;56766;52.260;20.746;2023-04-03T06:06:56;1.11;68.31
69546;SHT31;56766;52.260;20.746;2023-04-03T06:09:25;1.12;68.70
69546;SHT31;56766;52.260;20.746;2023-04-03T06:11:57;1.17;68.84
69546;SHT31;56766;52.260;20.746;2023-04-03T06:14:27;1.17;68.31
69546;SHT31;56766;52.260;20.746;2023-04-03T06:16:54;1.16;68.39
69546;SHT31;56766;52.260;20.746;2023-04-03T06:19:21;1.17;68.48
69546;SHT31;56766;52.260;20.746;2023-04-03T06:21:48;1.19;68.72
69546;SHT31;56766;52.260;20.746;2023-04-03T06:24:17;1.20;68.78
69546;SHT31;56766;52.260;20.746;2023-04-03T06:26:44;1.22;68.07
69546;SHT31;56766;52.260;20.746;2023-04-03T06:29:11;1.23;68.47
69546;SHT31;56766;52.260;20.746;2023-04-03T06:31:38;1.31;68.75
69546;SHT31;56766;52.260;20.746;2023-04-03T06:34:05;1.30;67.56
69546;SHT31;56766;52.260;20.746;2023-04-03T06:36:33;1.32;68.10
69546;SHT31;56766;52.260;20.746;2023-04-03T06:39:01;1.39;68.56
69546;SHT31;56766;52.260;20.746;2023-04-03T06:41:30;1.45;68.48
69546;SHT31;56766;52.260;20.746;2023-04-03T06:43:56;1.45;67.65
69546;SHT31;56766;52.260;20.746;2023-04-03T06:46:26;1.47;67.85
69546;SHT31;56766;52.260;20.746;2023-04-03T06:48:53;1.54;67.87
69546;SHT31;56766;52.260;20.746;2023-04-03T06:51:28;1.53;67.49
69546;SHT31;56766;52.260;20.746;2023-04-03T06:53:58;1.57;67.81
69546;SHT31;56766;52.260;20.746;2023-04-03T06:56:26;1.64;67.81
69546;SHT31;56766;52.260;20.746;2023-04-03T06:58:55;1.70;67.37
69546;SHT31;56766;52.260;20.746;2023-04-03T07:01:26;1.77;66.88
69546;SHT31;56766;52.260;20.746;2023-04-03T07:03:55;1.82;66.78
69546;SHT31;56766;52.260;20.746;2023-04-03T07:06:23;1.86;66.75
69546;SHT31;56766;52.260;20.746;2023-04-03T07:08:50;1.96;66.79
69546;SHT31;56766;52.260;20.746;2023-04-03T07:11:17;2.03;66.36
69546;SHT31;56766;52.260;20.746;2023-04-03T07:13:44;2.13;66.83
69546;SHT31;56766;52.260;20.746;2023-04-03T07:16:10;2.23;66.30
69546;SHT31;56766;52.260;20.746;2023-04-03T07:18:38;2.28;65.58
69546;SHT31;56766;52.260;20.746;2023-04-03T07:21:05;2.29;65.69
69546;SHT31;56766;52.260;20.746;2023-04-03T07:23:32;2.38;65.27
69546;SHT31;56766;52.260;20.746;2023-04-03T07:26:00;2.41;64.53
69546;SHT31;56766;52.260;20.746;2023-04-03T07:28:27;2.49;65.03
69546;SHT31;56766;52.260;20.746;2023-04-03T07:31:04;2.60;64.66
69546;SHT31;56766;52.260;20.746;2023-04-03T07:33:35;2.69;64.83
69546;SHT31;56766;52.260;20.746;2023-04-03T07:36:03;2.83;64.53
69546;SHT31;56766;52.260;20.746;2023-04-03T07:38:37;2.84;63.29
69546;SHT31;56766;52.260;20.746;2023-04-03T07:41:04;2.89;63.27
69546;SHT31;56766;52.260;20.746;2023-04-03T07:43:31;2.95;62.84
69546;SHT31;56766;52.260;20.746;2023-04-03T07:45:57;3.06;63.49
69546;SHT31;56766;52.260;20.746;2023-04-03T07:48:26;3.28;63.77
69546;SHT31;56766;52.260;20.746;2023-04-03T07:50:53;3.40;61.67
69546;SHT31;56766;52.260;20.746;2023-04-03T07:53:19;3.37;61.52
69546;SHT31;56766;52.260;20.746;2023-04-03T07:55:48;3.28;61.97
69546;SHT31;56766;52.260;20.746;2023-04-03T07:58:17;3.30;61.22
69546;SHT31;56766;52.260;20.746;2023-04-03T08:00:45;3.36;60.64
69546;SHT31;56766;52.260;20.746;2023-04-03T08:03:14;3.46;60.98
69546;SHT31;56766;52.260;20.746;2023-04-03T08:05:45;3.52;61.02
69546;SHT31;56766;52.260;20.746;2023-04-03T08:08:20;3.70;61.43
69546;SHT31;56766;52.260;20.746;2023-04-03T08:10:52;3.94;61.24
69546;SHT31;56766;52.260;20.746;2023-04-03T08:13:21;4.14;60.44
69546;SHT31;56766;52.260;20.746;2023-04-03T08:15:48;4.11;58.43
69546;SHT31;56766;52.260;20.746;2023-04-03T08:18:15;4.30;59.58
69546;SHT31;56766;52.260;20.746;2023-04-03T08:20:44;4.43;57.81
69546;SHT31;56766;52.260;20.746;2023-04-03T08:23:11;4.48;57.97
69546;SHT31;56766;52.260;20.746;2023-04-03T08:25:39;4.43;56.77
69546;SHT31;56766;52.260;20.746;2023-04-03T08:28:08;4.52;56.28
69546;SHT31;56766;52.260;20.746;2023-04-03T08:30:41;4.60;55.42
69546;SHT31;56766;52.260;20.746;2023-04-03T08:33:09;4.78;55.74
69546;SHT31;56766;52.260;20.746;2023-04-03T08:35:40;4.93;54.39
69546;SHT31;56766;52.260;20.746;2023-04-03T08:38:09;5.02;53.11
69546;SHT31;56766;52.260;20.746;2023-04-03T08:40:37;5.06;53.07
69546;SHT31;56766;52.260;20.746;2023-04-03T08:46:43;5.01;51.03
69546;SHT31;56766;52.260;20.746;2023-04-03T08:49:31;4.90;50.66
69546;SHT31;56766;52.260;20.746;2023-04-03T08:52:11;4.99;51.09
69546;SHT31;56766;52.260;20.746;2023-04-03T08:57:31;5.31;49.08
69546;SHT31;56766;52.260;20.746;2023-04-03T09:00:09;5.35;47.42
69546;SHT31;56766;52.260;20.746;2023-04-03T09:02:50;5.48;48.70
69546;SHT31;56766;52.260;20.746;2023-04-03T09:08:27;5.48;47.24
69546;SHT31;56766;52.260;20.746;2023-04-03T09:16:49;5.75;47.47
69546;SHT31;56766;52.260;20.746;2023-04-03T09:22:24;5.64;45.82
69546;SHT31;56766;52.260;20.746;2023-04-03T09:25:10;5.82;46.90
69546;SHT31;56766;52.260;20.746;2023-04-03T09:27:40;5.97;46.03
69546;SHT31;56766;52.260;20.746;2023-04-03T09:30:17;6.14;46.64
69546;SHT31;56766;52.260;20.746;2023-04-03T09:32:47;5.84;44.66
69546;SHT31;56766;52.260;20.746;2023-04-03T09:35:26;5.46;45.19
69546;SHT31;56766;52.260;20.746;2023-04-03T09:38:02;5.58;46.13
69546;SHT31;56766;52.260;20.746;2023-04-03T09:40:45;5.75;45.47
69546;SHT31;56766;52.260;20.746;2023-04-03T09:45:56;5.86;45.29
69546;SHT31;56766;52.260;20.746;2023-04-03T09:49:00;6.00;46.50
69546;SHT31;56766;52.260;20.746;2023-04-03T09:51:30;6.08;45.83
69546;SHT31;56766;52.260;20.746;2023-04-03T09:53:58;5.95;44.52
69546;SHT31;56766;52.260;20.746;2023-04-03T09:56:28;5.88;44.47
69546;SHT31;56766;52.260;20.746;2023-04-03T10:01:37;6.47;46.58
69546;SHT31;56766;52.260;20.746;2023-04-03T10:04:13;6.39;43.71
69546;SHT31;56766;52.260;20.746;2023-04-03T10:06:45;6.42;44.76
69546;SHT31;56766;52.260;20.746;2023-04-03T10:09:27;6.67;44.82
69546;SHT31;56766;52.260;20.746;2023-04-03T10:12:04;6.53;44.33
69546;SHT31;56766;52.260;20.746;2023-04-03T10:14:36;6.29;44.56
69546;SHT31;56766;52.260;20.746;2023-04-03T10:31:58;7.12;41.54
69546;SHT31;56766;52.260;20.746;2023-04-03T10:34:37;6.56;42.55
69546;SHT31;56766;52.260;20.746;2023-04-03T10:37:46;6.20;42.46
69546;SHT31;56766;52.260;20.746;2023-04-03T10:40:54;6.45;44.50
69546;SHT31;56766;52.260;20.746;2023-04-03T10:46:49;6.25;43.35
69546;SHT31;56766;52.260;20.746;2023-04-03T10:57:57;6.81;43.34
69546;SHT31;56766;52.260;20.746;2023-04-03T11:00:40;6.77;43.82
69546;SHT31;56766;52.260;20.746;2023-04-03T11:03:34;6.76;43.21
69546;SHT31;56766;52.260;20.746;2023-04-03T11:06:11;6.90;41.16
69546;SHT31;56766;52.260;20.746;2023-04-03T11:08:45;7.08;41.49
69546;SHT31;56766;52.260;20.746;2023-04-03T11:11:19;6.77;39.60
69546;SHT31;56766;52.260;20.746;2023-04-03T11:17:39;6.24;41.37
69546;SHT31;56766;52.260;20.746;2023-04-03T11:20:30;6.89;41.95
69546;SHT31;56766;52.260;20.746;2023-04-03T11:23:04;7.54;42.01
69546;SHT31;56766;52.260;20.746;2023-04-03T11:25:38;7.57;40.78
69546;SHT31;56766;52.260;20.746;2023-04-03T11:28:13;7.21;40.17
69546;SHT31;56766;52.260;20.746;2023-04-03T11:31:19;6.88;39.53
69546;SHT31;56766;52.260;20.746;2023-04-03T11:36:52;7.23;39.66
69546;SHT31;56766;52.260;20.746;2023-04-03T11:39:30;7.13;39.67
69546;SHT31;56766;52.260;20.746;2023-04-03T11:42:32;6.78;39.87
69546;SHT31;56766;52.260;20.746;2023-04-03T11:47:50;6.78;40.10
69546;SHT31;56766;52.260;20.746;2023-04-03T11:50:41;7.11;41.75
69546;SHT31;56766;52.260;20.746;2023-04-03T11:58:19;7.83;39.39
69546;SHT31;56766;52.260;20.746;2023-04-03T12:00:51;8.06;39.29
69546;SHT31;56766;52.260;20.746;2023-04-03T12:16:26;7.46;36.47
69546;SHT31;56766;52.260;20.746;2023-04-03T12:29:33;7.37;37.96
69546;SHT31;56766;52.260;20.746;2023-04-03T12:32:18;7.53;38.23
69546;SHT31;56766;52.260;20.746;2023-04-03T12:43:52;6.85;37.69
69546;SHT31;56766;52.260;20.746;2023-04-03T12:46:42;6.84;36.85
69546;SHT31;56766;52.260;20.746;2023-04-03T12:49:41;7.25;37.85
69546;SHT31;56766;52.260;20.746;2023-04-03T12:52:24;7.55;37.03
69546;SHT31;56766;52.260;20.746;2023-04-03T12:54:56;7.47;36.21
69546;SHT31;56766;52.260;20.746;2023-04-03T12:57:25;7.59;37.95
69546;SHT31;56766;52.260;20.746;2023-04-03T12:59:54;7.57;36.41
69546;SHT31;56766;52.260;20.746;2023-04-03T13:02:30;7.37;36.85
69546;SHT31;56766;52.260;20.746;2023-04-03T13:05:07;7.33;37.72
69546;SHT31;56766;52.260;20.746;2023-04-03T13:07:37;7.26;37.39
69546;SHT31;56766;52.260;20.746;2023-04-03T13:12:51;7.27;36.47
69546;SHT31;56766;52.260;20.746;2023-04-03T13:17:57;6.86;35.98
69546;SHT31;56766;52.260;20.746;2023-04-03T13:20:31;6.81;36.22
69546;SHT31;56766;52.260;20.746;2023-04-03T13:23:12;6.86;36.79
69546;SHT31;56766;52.260;20.746;2023-04-03T13:25:45;7.04;37.33
69546;SHT31;56766;52.260;20.746;2023-04-03T13:28:19;7.04;37.37
69546;SHT31;56766;52.260;20.746;2023-04-03T13:31:14;6.99;37.38
69546;SHT31;56766;52.260;20.746;2023-04-03T13:34:07;6.98;38.34
69546;SHT31;56766;52.260;20.746;2023-04-03T13:39:29;6.97;39.23
69546;SHT31;56766;52.260;20.746;2023-04-03T13:42:23;6.90;39.39
69546;SHT31;56766;52.260;20.746;2023-04-03T13:45:23;6.87;39.87
69546;SHT31;56766;52.260;20.746;2023-04-03T13:48:17;6.84;38.96
69546;SHT31;56766;52.260;20.746;2023-04-03T13:51:21;6.74;38.90
69546;SHT31;56766;52.260;20.746;2023-04-03T13:54:10;6.75;38.53
69546;SHT31;56766;52.260;20.746;2023-04-03T13:56:44;6.73;38.68
69546;SHT31;56766;52.260;20.746;2023-04-03T14:01:50;6.64;39.04
69546;SHT31;56766;52.260;20.746;2023-04-03T14:04:26;6.57;38.96
69546;SHT31;56766;52.260;20.746;2023-04-03T14:06:55;6.58;38.78
69546;SHT31;56766;52.260;20.746;2023-04-03T14:09:25;6.58;38.78
69546;SHT31;56766;52.260;20.746;2023-04-03T14:11:59;6.60;39.52
69546;SHT31;56766;52.260;20.746;2023-04-03T14:14:34;6.53;39.06
69546;SHT31;56766;52.260;20.746;2023-04-03T14:17:15;6.43;38.99
69546;SHT31;56766;52.260;20.746;2023-04-03T14:19:45;6.33;38.79
69546;SHT31;56766;52.260;20.746;2023-04-03T14:24:45;6.31;39.62
69546;SHT31;56766;52.260;20.746;2023-04-03T14:27:26;6.36;39.96
69546;SHT31;56766;52.260;20.746;2023-04-03T14:29:58;6.38;39.82
69546;SHT31;56766;52.260;20.746;2023-04-03T14:32:27;6.39;39.68
69546;SHT31;56766;52.260;20.746;2023-04-03T14:34:54;6.43;40.06
69546;SHT31;56766;52.260;20.746;2023-04-03T14:37:24;6.45;39.97
69546;SHT31;56766;52.260;20.746;2023-04-03T14:39:56;6.41;38.94
69546;SHT31;56766;52.260;20.746;2023-04-03T14:42:35;6.37;39.09
69546;SHT31;56766;52.260;20.746;2023-04-03T14:45:07;6.35;39.47
69546;SHT31;56766;52.260;20.746;2023-04-03T14:47:42;6.30;39.49
69546;SHT31;56766;52.260;20.746;2023-04-03T14:50:21;6.24;39.43
69546;SHT31;56766;52.260;20.746;2023-04-03T14:52:53;6.22;40.01
69546;SHT31;56766;52.260;20.746;2023-04-03T14:55:24;6.22;40.44
69546;SHT31;56766;52.260;20.746;2023-04-03T14:57:52;6.21;40.69
69546;SHT31;56766;52.260;20.746;2023-04-03T15:00:21;6.16;40.75
69546;SHT31;56766;52.260;20.746;2023-04-03T15:02:49;6.07;40.52
69546;SHT31;56766;52.260;20.746;2023-04-03T15:05:17;5.97;40.06
69546;SHT31;56766;52.260;20.746;2023-04-03T15:07:53;5.88;39.82
69546;SHT31;56766;52.260;20.746;2023-04-03T15:10:28;5.85;40.60
69546;SHT31;56766;52.260;20.746;2023-04-03T15:12:57;5.85;41.12
69546;SHT31;56766;52.260;20.746;2023-04-03T15:15:24;5.83;41.15
69546;SHT31;56766;52.260;20.746;2023-04-03T15:17:57;5.81;41.80
69546;SHT31;56766;52.260;20.746;2023-04-03T15:20:25;5.83;41.96
69546;SHT31;56766;52.260;20.746;2023-04-03T15:22:54;5.84;42.39
69546;SHT31;56766;52.260;20.746;2023-04-03T15:25:23;5.80;41.76
69546;SHT31;56766;52.260;20.746;2023-04-03T15:27:53;5.77;42.07
69546;SHT31;56766;52.260;20.746;2023-04-03T15:30:21;5.70;41.28
69546;SHT31;56766;52.260;20.746;2023-04-03T15:32:49;5.64;41.62
69546;SHT31;56766;52.260;20.746;2023-04-03T15:35:17;5.60;41.97
69546;SHT31;56766;52.260;20.746;2023-04-03T15:37:44;5.53;41.35
69546;SHT31;56766;52.260;20.746;2023-04-03T15:40:11;5.48;42.04
69546;SHT31;56766;52.260;20.746;2023-04-03T15:42:39;5.44;42.14
69546;SHT31;56766;52.260;20.746;2023-04-03T15:45:07;5.43;42.37
69546;SHT31;56766;52.260;20.746;2023-04-03T15:47:35;5.42;43.01
69546;SHT31;56766;52.260;20.746;2023-04-03T15:50:03;5.42;43.12
69546;SHT31;56766;52.260;20.746;2023-04-03T15:52:33;5.41;43.42
69546;SHT31;56766;52.260;20.746;2023-04-03T15:55:00;5.40;43.58
69546;SHT31;56766;52.260;20.746;2023-04-03T15:57:27;5.39;43.94
69546;SHT31;56766;52.260;20.746;2023-04-03T15:59:54;5.35;44.07
69546;SHT31;56766;52.260;20.746;2023-04-03T16:02:21;5.30;44.02
69546;SHT31;56766;52.260;20.746;2023-04-03T16:04:49;5.21;43.47
69546;SHT31;56766;52.260;20.746;2023-04-03T16:07:16;5.15;43.45
69546;SHT31;56766;52.260;20.746;2023-04-03T16:09:43;5.11;43.47
69546;SHT31;56766;52.260;20.746;2023-04-03T16:12:09;5.04;42.93
69546;SHT31;56766;52.260;20.746;2023-04-03T16:14:36;4.99;43.04
69546;SHT31;56766;52.260;20.746;2023-04-03T16:17:03;4.93;43.35
69546;SHT31;56766;52.260;20.746;2023-04-03T16:19:30;4.89;43.54
69546;SHT31;56766;52.260;20.746;2023-04-03T16:21:57;4.83;43.90
69546;SHT31;56766;52.260;20.746;2023-04-03T16:24:24;4.77;43.82
69546;SHT31;56766;52.260;20.746;2023-04-03T16:26:50;4.71;43.51
69546;SHT31;56766;52.260;20.746;2023-04-03T16:29:19;4.66;43.53
69546;SHT31;56766;52.260;20.746;2023-04-03T16:31:46;4.65;44.20
69546;SHT31;56766;52.260;20.746;2023-04-03T16:34:13;4.61;44.50
69546;SHT31;56766;52.260;20.746;2023-04-03T16:36:40;4.58;44.43
69546;SHT31;56766;52.260;20.746;2023-04-03T16:39:06;4.57;45.01
69546;SHT31;56766;52.260;20.746;2023-04-03T16:41:36;4.54;45.56
69546;SHT31;56766;52.260;20.746;2023-04-03T16:44:03;4.51;45.79
69546;SHT31;56766;52.260;20.746;2023-04-03T16:46:30;4.46;45.57
69546;SHT31;56766;52.260;20.746;2023-04-03T16:48:57;4.43;45.42
69546;SHT31;56766;52.260;20.746;2023-04-03T16:51:23;4.39;46.10
69546;SHT31;56766;52.260;20.746;2023-04-03T16:53:51;4.34;45.98
69546;SHT31;56766;52.260;20.746;2023-04-03T16:56:18;4.31;46.08
69546;SHT31;56766;52.260;20.746;2023-04-03T16:58:44;4.29;46.52
69546;SHT31;56766;52.260;20.746;2023-04-03T17:01:14;4.24;46.78
69546;SHT31;56766;52.260;20.746;2023-04-03T17:03:44;4.20;46.38
69546;SHT31;56766;52.260;20.746;2023-04-03T17:06:16;4.17;46.44
69546;SHT31;56766;52.260;20.746;2023-04-03T17:08:47;4.15;45.88
69546;SHT31;56766;52.260;20.746;2023-04-03T17:11:16;4.14;46.08
69546;SHT31;56766;52.260;20.746;2023-04-03T17:13:43;4.11;46.03
69546;SHT31;56766;52.260;20.746;2023-04-03T17:16:14;4.10;46.04
69546;SHT31;56766;52.260;20.746;2023-04-03T17:18:42;4.08;46.33
69546;SHT31;56766;52.260;20.746;2023-04-03T17:21:13;4.05;46.83
69546;SHT31;56766;52.260;20.746;2023-04-03T17:23:44;4.01;47.02
69546;SHT31;56766;52.260;20.746;2023-04-03T17:26:15;3.98;47.30
69546;SHT31;56766;52.260;20.746;2023-04-03T17:28:42;3.94;47.40
69546;SHT31;56766;52.260;20.746;2023-04-03T17:31:09;3.90;47.85
69546;SHT31;56766;52.260;20.746;2023-04-03T17:33:36;3.86;47.99
69546;SHT31;56766;52.260;20.746;2023-04-03T17:36:05;3.81;48.42
69546;SHT31;56766;52.260;20.746;2023-04-03T17:38:33;3.77;48.55
69546;SHT31;56766;52.260;20.746;2023-04-03T17:41:04;3.75;48.77
69546;SHT31;56766;52.260;20.746;2023-04-03T17:43:34;3.73;48.48
69546;SHT31;56766;52.260;20.746;2023-04-03T17:46:05;3.73;48.99